sensor_id;sensor_type;location;lat;lon;timestamp;P1;durP1;ratioP1;P2;durP2;ratioP2
3939;SDS011;1984;48.312;9.244;2022-10-16T00:00:29;13.23;;;1.10;;
3939;SDS011;1984;48.312;9.244;2022-10-16T00:02:55;1.10;;;1.10;;
3939;SDS011;1984;48.312;9.244;2022-10-16T00:05:20;1.43;;;0.93;;
3939;SDS011;1984;48.312;9.244;2022-10-16T00:07:46;0.90;;;0.90;;
3939;SDS011;1984;48.312;9.244;2022-10-16T00:10:11;1.23;;;1.13;;
3939;SDS011;1984;48.312;9.244;2022-10-16T00:12:37;6.80;;;1.37;;
3939;SDS011;1984;48.312;9.244;2022-10-16T00:15:02;1.67;;;1.57;;
3939;SDS011;1984;48.312;9.244;2022-10-16T00:17:29;3.77;;;1.20;;
3939;SDS011;1984;48.312;9.244;2022-10-16T00:19:55;3.33;;;1.23;;
3939;SDS011;1984;48.312;9.244;2022-10-16T00:22:21;2.17;;;1.27;;
3939;SDS011;1984;48.312;9.244;2022-10-16T00:24:47;1.47;;;1.40;;
3939;SDS011;1984;48.312;9.244;2022-10-16T00:27:12;2.97;;;1.37;;
3939;SDS011;1984;48.312;9.244;2022-10-16T00:29:38;2.97;;;1.43;;
3939;SDS011;1984;48.312;9.244;2022-10-16T00:32:04;2.20;;;1.80;;
3939;SDS011;1984;48.312;9.244;2022-10-16T00:34:29;1.53;;;1.43;;
3939;SDS011;1984;48.312;9.244;2022-10-16T00:36:55;1.33;;;1.33;;
3939;SDS011;1984;48.312;9.244;2022-10-16T00:39:20;2.00;;;1.90;;
3939;SDS011;1984;48.312;9.244;2022-10-16T00:41:47;1.57;;;1.47;;
3939;SDS011;1984;48.312;9.244;2022-10-16T00:47:11;4.50;;;1.50;;
3939;SDS011;1984;48.312;9.244;2022-10-16T00:50:18;1.20;;;1.17;;
3939;SDS011;1984;48.312;9.244;2022-10-16T00:52:54;1.70;;;1.60;;
3939;SDS011;1984;48.312;9.244;2022-10-16T00:55:21;6.30;;;1.53;;
3939;SDS011;1984;48.312;9.244;2022-10-16T00:57:47;2.17;;;2.00;;
3939;SDS011;1984;48.312;9.244;2022-10-16T01:00:15;1.53;;;1.43;;
3939;SDS011;1984;48.312;9.244;2022-10-16T01:02:43;5.60;;;1.60;;
3939;SDS011;1984;48.312;9.244;2022-10-16T01:05:08;1.63;;;1.53;;
3939;SDS011;1984;48.312;9.244;2022-10-16T01:10:07;1.70;;;1.60;;
3939;SDS011;1984;48.312;9.244;2022-10-16T01:15:18;1.53;;;1.43;;
3939;SDS011;1984;48.312;9.244;2022-10-16T01:18:25;1.33;;;1.27;;
3939;SDS011;1984;48.312;9.244;2022-10-16T01:20:54;3.20;;;1.50;;
3939;SDS011;1984;48.312;9.244;2022-10-16T01:24:05;3.10;;;1.47;;
3939;SDS011;1984;48.312;9.244;2022-10-16T01:29:50;10.30;;;2.80;;
3939;SDS011;1984;48.312;9.244;2022-10-16T01:32:28;13.20;;;3.53;;
3939;SDS011;1984;48.312;9.244;2022-10-16T01:35:34;6.53;;;3.67;;
3939;SDS011;1984;48.312;9.244;2022-10-16T01:38:08;2.77;;;2.17;;
3939;SDS011;1984;48.312;9.244;2022-10-16T01:40:53;2.30;;;1.77;;
3939;SDS011;1984;48.312;9.244;2022-10-16T01:43:26;1.90;;;1.80;;
3939;SDS011;1984;48.312;9.244;2022-10-16T01:45:56;1.70;;;1.60;;
3939;SDS011;1984;48.312;9.244;2022-10-16T01:48:24;1.53;;;1.43;;
3939;SDS011;1984;48.312;9.244;2022-10-16T01:51:01;4.67;;;1.80;;
3939;SDS011;1984;48.312;9.244;2022-10-16T01:53:31;2.40;;;1.70;;
3939;SDS011;1984;48.312;9.244;2022-10-16T01:55:57;3.23;;;1.53;;
3939;SDS011;1984;48.312;9.244;2022-10-16T01:58:25;3.53;;;1.73;;
3939;SDS011;1984;48.312;9.244;2022-10-16T02:00:52;2.90;;;1.63;;
3939;SDS011;1984;48.312;9.244;2022-10-16T02:03:20;22.03;;;1.77;;
3939;SDS011;1984;48.312;9.244;2022-10-16T02:05:46;7.23;;;1.50;;
3939;SDS011;1984;48.312;9.244;2022-10-16T02:08:17;2.33;;;1.53;;
3939;SDS011;1984;48.312;9.244;2022-10-16T02:10:44;6.43;;;1.47;;
3939;SDS011;1984;48.312;9.244;2022-10-16T02:13:14;1.40;;;1.30;;
3939;SDS011;1984;48.312;9.244;2022-10-16T02:15:44;3.93;;;1.70;;
3939;SDS011;1984;48.312;9.244;2022-10-16T02:18:09;2.20;;;1.93;;
3939;SDS011;1984;48.312;9.244;2022-10-16T02:21:22;3.97;;;2.07;;
3939;SDS011;1984;48.312;9.244;2022-10-16T02:23:53;1.73;;;1.63;;
3939;SDS011;1984;48.312;9.244;2022-10-16T02:26:42;3.80;;;1.60;;
3939;SDS011;1984;48.312;9.244;2022-10-16T02:29:22;3.97;;;1.70;;
3939;SDS011;1984;48.312;9.244;2022-10-16T02:31:51;1.50;;;1.40;;
3939;SDS011;1984;48.312;9.244;2022-10-16T02:34:24;3.03;;;2.00;;
3939;SDS011;1984;48.312;9.244;2022-10-16T02:36:51;1.60;;;1.50;;
3939;SDS011;1984;48.312;9.244;2022-10-16T02:39:18;2.10;;;1.90;;
3939;SDS011;1984;48.312;9.244;2022-10-16T02:41:45;1.50;;;1.40;;
3939;SDS011;1984;48.312;9.244;2022-10-16T02:44:11;1.57;;;1.47;;
3939;SDS011;1984;48.312;9.244;2022-10-16T02:46:36;3.90;;;1.33;;
3939;SDS011;1984;48.312;9.244;2022-10-16T02:49:02;1.70;;;1.60;;
3939;SDS011;1984;48.312;9.244;2022-10-16T02:51:27;2.30;;;1.80;;
3939;SDS011;1984;48.312;9.244;2022-10-16T02:53:53;6.03;;;2.20;;
3939;SDS011;1984;48.312;9.244;2022-10-16T02:56:18;7.50;;;1.37;;
3939;SDS011;1984;48.312;9.244;2022-10-16T02:58:44;1.57;;;1.40;;
3939;SDS011;1984;48.312;9.244;2022-10-16T03:01:09;1.30;;;1.20;;
3939;SDS011;1984;48.312;9.244;2022-10-16T03:03:37;4.20;;;1.90;;
3939;SDS011;1984;48.312;9.244;2022-10-16T03:06:02;10.13;;;1.50;;
3939;SDS011;1984;48.312;9.244;2022-10-16T03:08:28;1.40;;;1.30;;
3939;SDS011;1984;48.312;9.244;2022-10-16T03:10:54;2.73;;;1.60;;
3939;SDS011;1984;48.312;9.244;2022-10-16T03:13:20;3.30;;;1.67;;
3939;SDS011;1984;48.312;9.244;2022-10-16T03:15:45;1.50;;;1.40;;
3939;SDS011;1984;48.312;9.244;2022-10-16T03:18:11;3.30;;;1.60;;
3939;SDS011;1984;48.312;9.244;2022-10-16T03:20:36;1.60;;;1.50;;
3939;SDS011;1984;48.312;9.244;2022-10-16T03:23:02;2.23;;;1.40;;
3939;SDS011;1984;48.312;9.244;2022-10-16T03:25:28;1.53;;;1.40;;
3939;SDS011;1984;48.312;9.244;2022-10-16T03:27:54;1.70;;;1.60;;
3939;SDS011;1984;48.312;9.244;2022-10-16T03:30:19;2.37;;;1.73;;
3939;SDS011;1984;48.312;9.244;2022-10-16T03:32:45;1.20;;;1.20;;
3939;SDS011;1984;48.312;9.244;2022-10-16T03:35:11;1.40;;;1.30;;
3939;SDS011;1984;48.312;9.244;2022-10-16T03:37:37;1.73;;;1.40;;
3939;SDS011;1984;48.312;9.244;2022-10-16T03:40:02;4.90;;;1.57;;
3939;SDS011;1984;48.312;9.244;2022-10-16T03:42:29;1.90;;;1.53;;
3939;SDS011;1984;48.312;9.244;2022-10-16T03:44:54;2.23;;;2.00;;
3939;SDS011;1984;48.312;9.244;2022-10-16T03:47:20;2.03;;;1.93;;
3939;SDS011;1984;48.312;9.244;2022-10-16T03:49:48;1.63;;;1.53;;
3939;SDS011;1984;48.312;9.244;2022-10-16T03:52:14;1.70;;;1.60;;
3939;SDS011;1984;48.312;9.244;2022-10-16T03:54:39;1.90;;;1.80;;
3939;SDS011;1984;48.312;9.244;2022-10-16T03:57:05;2.17;;;1.97;;
3939;SDS011;1984;48.312;9.244;2022-10-16T03:59:30;3.83;;;2.27;;
3939;SDS011;1984;48.312;9.244;2022-10-16T04:01:56;4.23;;;2.50;;
3939;SDS011;1984;48.312;9.244;2022-10-16T04:04:21;4.63;;;1.97;;
3939;SDS011;1984;48.312;9.244;2022-10-16T04:06:47;2.10;;;2.00;;
3939;SDS011;1984;48.312;9.244;2022-10-16T04:09:12;2.43;;;2.07;;
3939;SDS011;1984;48.312;9.244;2022-10-16T04:11:38;3.67;;;1.90;;
3939;SDS011;1984;48.312;9.244;2022-10-16T04:14:04;8.50;;;2.30;;
3939;SDS011;1984;48.312;9.244;2022-10-16T04:16:29;2.93;;;2.13;;
3939;SDS011;1984;48.312;9.244;2022-10-16T04:18:55;3.63;;;1.70;;
3939;SDS011;1984;48.312;9.244;2022-10-16T04:21:20;1.80;;;1.70;;
3939;SDS011;1984;48.312;9.244;2022-10-16T04:23:47;4.03;;;1.63;;
3939;SDS011;1984;48.312;9.244;2022-10-16T04:26:12;1.60;;;1.50;;
3939;SDS011;1984;48.312;9.244;2022-10-16T04:28:38;2.33;;;2.13;;
3939;SDS011;1984;48.312;9.244;2022-10-16T04:31:04;7.70;;;1.57;;
3939;SDS011;1984;48.312;9.244;2022-10-16T04:33:30;2.50;;;1.77;;
3939;SDS011;1984;48.312;9.244;2022-10-16T04:35:56;2.30;;;1.50;;
3939;SDS011;1984;48.312;9.244;2022-10-16T04:38:22;2.70;;;1.70;;
3939;SDS011;1984;48.312;9.244;2022-10-16T04:40:48;7.57;;;1.90;;
3939;SDS011;1984;48.312;9.244;2022-10-16T04:43:13;1.80;;;1.60;;
3939;SDS011;1984;48.312;9.244;2022-10-16T04:45:39;10.00;;;2.00;;
3939;SDS011;1984;48.312;9.244;2022-10-16T04:48:04;2.17;;;1.60;;
3939;SDS011;1984;48.312;9.244;2022-10-16T04:50:30;7.33;;;1.90;;
3939;SDS011;1984;48.312;9.244;2022-10-16T04:52:55;1.83;;;1.73;;
3939;SDS011;1984;48.312;9.244;2022-10-16T04:55:21;2.03;;;1.70;;
3939;SDS011;1984;48.312;9.244;2022-10-16T04:57:46;1.73;;;1.63;;
3939;SDS011;1984;48.312;9.244;2022-10-16T05:00:12;2.40;;;2.10;;
3939;SDS011;1984;48.312;9.244;2022-10-16T05:02:38;1.87;;;1.77;;
3939;SDS011;1984;48.312;9.244;2022-10-16T05:05:03;3.40;;;1.93;;
3939;SDS011;1984;48.312;9.244;2022-10-16T05:07:29;2.40;;;2.20;;
3939;SDS011;1984;48.312;9.244;2022-10-16T05:09:55;4.87;;;1.60;;
3939;SDS011;1984;48.312;9.244;2022-10-16T05:12:20;2.07;;;1.97;;
3939;SDS011;1984;48.312;9.244;2022-10-16T05:14:46;1.67;;;1.57;;
3939;SDS011;1984;48.312;9.244;2022-10-16T05:17:11;3.57;;;2.03;;
3939;SDS011;1984;48.312;9.244;2022-10-16T05:19:37;2.60;;;1.90;;
3939;SDS011;1984;48.312;9.244;2022-10-16T05:22:02;4.90;;;3.13;;
3939;SDS011;1984;48.312;9.244;2022-10-16T05:24:28;3.93;;;3.53;;
3939;SDS011;1984;48.312;9.244;2022-10-16T05:26:53;3.03;;;2.80;;
3939;SDS011;1984;48.312;9.244;2022-10-16T05:29:19;8.70;;;2.93;;
3939;SDS011;1984;48.312;9.244;2022-10-16T05:31:45;4.13;;;3.00;;
3939;SDS011;1984;48.312;9.244;2022-10-16T05:34:11;11.13;;;3.27;;
3939;SDS011;1984;48.312;9.244;2022-10-16T05:36:36;3.10;;;2.83;;
3939;SDS011;1984;48.312;9.244;2022-10-16T05:39:02;4.47;;;2.83;;
3939;SDS011;1984;48.312;9.244;2022-10-16T05:41:28;7.13;;;2.83;;
3939;SDS011;1984;48.312;9.244;2022-10-16T05:43:53;9.60;;;2.43;;
3939;SDS011;1984;48.312;9.244;2022-10-16T05:46:19;3.37;;;2.60;;
3939;SDS011;1984;48.312;9.244;2022-10-16T05:48:45;5.23;;;2.60;;
3939;SDS011;1984;48.312;9.244;2022-10-16T05:51:11;9.33;;;4.97;;
3939;SDS011;1984;48.312;9.244;2022-10-16T05:53:38;11.43;;;5.03;;
3939;SDS011;1984;48.312;9.244;2022-10-16T05:56:06;10.43;;;5.37;;
3939;SDS011;1984;48.312;9.244;2022-10-16T05:58:33;8.80;;;4.50;;
3939;SDS011;1984;48.312;9.244;2022-10-16T06:01:07;6.27;;;4.67;;
3939;SDS011;1984;48.312;9.244;2022-10-16T06:03:39;17.60;;;4.90;;
3939;SDS011;1984;48.312;9.244;2022-10-16T06:06:11;13.13;;;6.50;;
3939;SDS011;1984;48.312;9.244;2022-10-16T06:08:39;6.00;;;4.90;;
3939;SDS011;1984;48.312;9.244;2022-10-16T06:11:07;12.63;;;5.00;;
3939;SDS011;1984;48.312;9.244;2022-10-16T06:13:35;7.27;;;4.70;;
3939;SDS011;1984;48.312;9.244;2022-10-16T06:16:01;5.07;;;3.00;;
3939;SDS011;1984;48.312;9.244;2022-10-16T06:18:27;4.77;;;2.33;;
3939;SDS011;1984;48.312;9.244;2022-10-16T06:20:54;3.40;;;3.10;;
3939;SDS011;1984;48.312;9.244;2022-10-16T06:23:20;5.50;;;3.43;;
3939;SDS011;1984;48.312;9.244;2022-10-16T06:25:45;3.90;;;2.90;;
3939;SDS011;1984;48.312;9.244;2022-10-16T06:28:11;9.73;;;4.53;;
3939;SDS011;1984;48.312;9.244;2022-10-16T06:30:38;8.50;;;4.30;;
3939;SDS011;1984;48.312;9.244;2022-10-16T06:33:03;5.80;;;3.50;;
3939;SDS011;1984;48.312;9.244;2022-10-16T06:35:29;24.20;;;5.77;;
3939;SDS011;1984;48.312;9.244;2022-10-16T06:37:56;4.70;;;3.60;;
3939;SDS011;1984;48.312;9.244;2022-10-16T06:40:22;5.77;;;3.73;;
3939;SDS011;1984;48.312;9.244;2022-10-16T06:42:47;4.80;;;3.43;;
3939;SDS011;1984;48.312;9.244;2022-10-16T06:45:13;7.17;;;4.33;;
3939;SDS011;1984;48.312;9.244;2022-10-16T06:47:39;5.87;;;4.30;;
3939;SDS011;1984;48.312;9.244;2022-10-16T06:50:04;4.27;;;3.40;;
3939;SDS011;1984;48.312;9.244;2022-10-16T06:52:31;8.30;;;5.00;;
3939;SDS011;1984;48.312;9.244;2022-10-16T06:54:58;9.80;;;4.40;;
3939;SDS011;1984;48.312;9.244;2022-10-16T06:57:23;7.67;;;4.10;;
3939;SDS011;1984;48.312;9.244;2022-10-16T06:59:49;3.63;;;3.33;;
3939;SDS011;1984;48.312;9.244;2022-10-16T07:02:14;4.30;;;3.50;;
3939;SDS011;1984;48.312;9.244;2022-10-16T07:04:40;3.47;;;3.17;;
3939;SDS011;1984;48.312;9.244;2022-10-16T07:07:05;4.20;;;3.40;;
3939;SDS011;1984;48.312;9.244;2022-10-16T07:09:31;4.00;;;3.40;;
3939;SDS011;1984;48.312;9.244;2022-10-16T07:11:56;1.83;;;1.73;;
3939;SDS011;1984;48.312;9.244;2022-10-16T07:14:22;2.13;;;2.00;;
3939;SDS011;1984;48.312;9.244;2022-10-16T07:16:48;3.10;;;2.17;;
3939;SDS011;1984;48.312;9.244;2022-10-16T07:19:14;3.10;;;1.80;;
3939;SDS011;1984;48.312;9.244;2022-10-16T07:21:42;2.27;;;2.00;;
3939;SDS011;1984;48.312;9.244;2022-10-16T07:24:11;2.13;;;1.93;;
3939;SDS011;1984;48.312;9.244;2022-10-16T07:26:41;4.20;;;1.53;;
3939;SDS011;1984;48.312;9.244;2022-10-16T07:29:18;5.50;;;1.83;;
3939;SDS011;1984;48.312;9.244;2022-10-16T07:31:45;2.70;;;1.80;;
3939;SDS011;1984;48.312;9.244;2022-10-16T07:34:12;1.80;;;1.30;;
3939;SDS011;1984;48.312;9.244;2022-10-16T07:36:39;2.70;;;1.87;;
3939;SDS011;1984;48.312;9.244;2022-10-16T07:39:04;2.07;;;1.97;;
3939;SDS011;1984;48.312;9.244;2022-10-16T07:41:31;1.97;;;1.87;;
3939;SDS011;1984;48.312;9.244;2022-10-16T07:43:58;1.73;;;1.63;;
3939;SDS011;1984;48.312;9.244;2022-10-16T07:46:25;3.10;;;2.00;;
3939;SDS011;1984;48.312;9.244;2022-10-16T07:48:51;1.97;;;1.53;;
3939;SDS011;1984;48.312;9.244;2022-10-16T07:51:17;2.67;;;1.93;;
3939;SDS011;1984;48.312;9.244;2022-10-16T07:53:45;2.17;;;1.83;;
3939;SDS011;1984;48.312;9.244;2022-10-16T07:56:11;4.37;;;2.30;;
3939;SDS011;1984;48.312;9.244;2022-10-16T07:58:38;6.30;;;2.70;;
3939;SDS011;1984;48.312;9.244;2022-10-16T08:01:05;3.73;;;3.43;;
3939;SDS011;1984;48.312;9.244;2022-10-16T08:03:32;3.80;;;3.30;;
3939;SDS011;1984;48.312;9.244;2022-10-16T08:05:58;4.40;;;2.60;;
3939;SDS011;1984;48.312;9.244;2022-10-16T08:08:24;10.93;;;3.30;;
3939;SDS011;1984;48.312;9.244;2022-10-16T08:10:50;3.80;;;2.07;;
3939;SDS011;1984;48.312;9.244;2022-10-16T08:13:15;5.50;;;2.10;;
3939;SDS011;1984;48.312;9.244;2022-10-16T08:15:42;2.37;;;1.30;;
3939;SDS011;1984;48.312;9.244;2022-10-16T08:18:09;5.77;;;1.90;;
3939;SDS011;1984;48.312;9.244;2022-10-16T08:20:36;4.20;;;1.57;;
3939;SDS011;1984;48.312;9.244;2022-10-16T08:23:01;3.00;;;2.13;;
3939;SDS011;1984;48.312;9.244;2022-10-16T08:25:27;4.30;;;2.03;;
3939;SDS011;1984;48.312;9.244;2022-10-16T08:27:53;2.37;;;2.17;;
3939;SDS011;1984;48.312;9.244;2022-10-16T08:30:19;4.40;;;1.47;;
3939;SDS011;1984;48.312;9.244;2022-10-16T08:32:46;5.17;;;2.20;;
3939;SDS011;1984;48.312;9.244;2022-10-16T08:35:12;2.33;;;2.13;;
3939;SDS011;1984;48.312;9.244;2022-10-16T08:37:39;4.60;;;2.50;;
3939;SDS011;1984;48.312;9.244;2022-10-16T08:40:06;6.40;;;2.33;;
3939;SDS011;1984;48.312;9.244;2022-10-16T08:46:21;3.77;;;2.10;;
3939;SDS011;1984;48.312;9.244;2022-10-16T08:48:54;1.30;;;1.20;;
3939;SDS011;1984;48.312;9.244;2022-10-16T08:51:29;1.23;;;1.20;;
3939;SDS011;1984;48.312;9.244;2022-10-16T08:53:58;1.70;;;1.40;;
3939;SDS011;1984;48.312;9.244;2022-10-16T08:56:27;7.07;;;1.93;;
3939;SDS011;1984;48.312;9.244;2022-10-16T08:58:53;2.47;;;1.50;;
3939;SDS011;1984;48.312;9.244;2022-10-16T09:01:20;8.27;;;1.80;;
3939;SDS011;1984;48.312;9.244;2022-10-16T09:04:06;1.60;;;1.50;;
3939;SDS011;1984;48.312;9.244;2022-10-16T09:17:15;1.30;;;1.30;;
3939;SDS011;1984;48.312;9.244;2022-10-16T09:20:09;2.43;;;1.67;;
3939;SDS011;1984;48.312;9.244;2022-10-16T09:22:38;3.00;;;1.70;;
3939;SDS011;1984;48.312;9.244;2022-10-16T09:25:11;1.63;;;1.53;;
3939;SDS011;1984;48.312;9.244;2022-10-16T09:27:42;1.73;;;1.63;;
3939;SDS011;1984;48.312;9.244;2022-10-16T09:30:20;1.97;;;1.63;;
3939;SDS011;1984;48.312;9.244;2022-10-16T09:32:50;3.07;;;1.47;;
3939;SDS011;1984;48.312;9.244;2022-10-16T09:35:20;1.00;;;1.00;;
3939;SDS011;1984;48.312;9.244;2022-10-16T09:37:50;1.43;;;1.27;;
3939;SDS011;1984;48.312;9.244;2022-10-16T09:45:56;14.20;;;1.50;;
3939;SDS011;1984;48.312;9.244;2022-10-16T09:48:37;2.37;;;2.17;;
3939;SDS011;1984;48.312;9.244;2022-10-16T09:51:28;5.20;;;2.20;;
3939;SDS011;1984;48.312;9.244;2022-10-16T09:53:59;7.63;;;2.07;;
3939;SDS011;1984;48.312;9.244;2022-10-16T09:58:55;2.40;;;1.60;;
3939;SDS011;1984;48.312;9.244;2022-10-16T10:01:26;7.83;;;1.67;;
3939;SDS011;1984;48.312;9.244;2022-10-16T10:04:03;1.50;;;1.40;;
3939;SDS011;1984;48.312;9.244;2022-10-16T10:06:31;3.90;;;1.10;;
3939;SDS011;1984;48.312;9.244;2022-10-16T10:11:51;1.80;;;1.40;;
3939;SDS011;1984;48.312;9.244;2022-10-16T10:14:20;6.33;;;1.83;;
3939;SDS011;1984;48.312;9.244;2022-10-16T10:16:52;2.93;;;1.50;;
3939;SDS011;1984;48.312;9.244;2022-10-16T10:19:27;5.07;;;2.00;;
3939;SDS011;1984;48.312;9.244;2022-10-16T10:21:53;4.40;;;1.90;;
3939;SDS011;1984;48.312;9.244;2022-10-16T10:24:19;2.73;;;1.90;;
3939;SDS011;1984;48.312;9.244;2022-10-16T10:26:47;2.73;;;2.53;;
3939;SDS011;1984;48.312;9.244;2022-10-16T10:29:53;1.50;;;1.40;;
3939;SDS011;1984;48.312;9.244;2022-10-16T10:35:13;2.50;;;2.30;;
3939;SDS011;1984;48.312;9.244;2022-10-16T10:46:09;6.17;;;2.40;;
3939;SDS011;1984;48.312;9.244;2022-10-16T10:48:59;3.63;;;2.20;;
3939;SDS011;1984;48.312;9.244;2022-10-16T11:02:26;1.77;;;1.40;;
3939;SDS011;1984;48.312;9.244;2022-10-16T11:07:52;1.20;;;1.20;;
3939;SDS011;1984;48.312;9.244;2022-10-16T11:13:28;2.70;;;1.10;;
3939;SDS011;1984;48.312;9.244;2022-10-16T11:16:15;1.73;;;1.30;;
3939;SDS011;1984;48.312;9.244;2022-10-16T11:21:55;4.63;;;1.30;;
3939;SDS011;1984;48.312;9.244;2022-10-16T11:27:02;1.30;;;1.20;;
3939;SDS011;1984;48.312;9.244;2022-10-16T11:29:32;2.20;;;1.07;;
3939;SDS011;1984;48.312;9.244;2022-10-16T11:32:06;2.97;;;1.20;;
3939;SDS011;1984;48.312;9.244;2022-10-16T11:34:53;1.97;;;1.10;;
3939;SDS011;1984;48.312;9.244;2022-10-16T11:37:30;2.60;;;1.30;;
3939;SDS011;1984;48.312;9.244;2022-10-16T11:43:02;5.23;;;1.27;;
3939;SDS011;1984;48.312;9.244;2022-10-16T11:45:42;0.90;;;0.90;;
3939;SDS011;1984;48.312;9.244;2022-10-16T11:48:32;2.10;;;1.20;;
3939;SDS011;1984;48.312;9.244;2022-10-16T11:51:29;3.23;;;1.57;;
3939;SDS011;1984;48.312;9.244;2022-10-16T11:54:14;1.30;;;1.20;;
3939;SDS011;1984;48.312;9.244;2022-10-16T11:56:50;3.47;;;1.27;;
3939;SDS011;1984;48.312;9.244;2022-10-16T12:01:49;4.03;;;1.37;;
3939;SDS011;1984;48.312;9.244;2022-10-16T12:04:41;10.13;;;1.40;;
3939;SDS011;1984;48.312;9.244;2022-10-16T12:07:14;1.73;;;1.63;;
3939;SDS011;1984;48.312;9.244;2022-10-16T12:09:46;6.27;;;1.93;;
3939;SDS011;1984;48.312;9.244;2022-10-16T12:14:59;1.43;;;1.33;;
3939;SDS011;1984;48.312;9.244;2022-10-16T12:17:34;2.13;;;1.47;;
3939;SDS011;1984;48.312;9.244;2022-10-16T12:23:03;1.30;;;1.30;;
3939;SDS011;1984;48.312;9.244;2022-10-16T12:25:30;3.20;;;1.53;;
3939;SDS011;1984;48.312;9.244;2022-10-16T12:28:02;2.50;;;1.40;;
3939;SDS011;1984;48.312;9.244;2022-10-16T12:30:34;4.17;;;1.13;;
3939;SDS011;1984;48.312;9.244;2022-10-16T12:33:04;1.40;;;1.30;;
3939;SDS011;1984;48.312;9.244;2022-10-16T12:35:44;1.57;;;1.47;;
3939;SDS011;1984;48.312;9.244;2022-10-16T12:38:18;1.33;;;1.23;;
3939;SDS011;1984;48.312;9.244;2022-10-16T12:40:46;1.07;;;1.07;;
3939;SDS011;1984;48.312;9.244;2022-10-16T12:43:36;2.63;;;0.90;;
3939;SDS011;1984;48.312;9.244;2022-10-16T12:48:38;1.33;;;1.23;;
3939;SDS011;1984;48.312;9.244;2022-10-16T12:51:09;2.30;;;1.07;;
3939;SDS011;1984;48.312;9.244;2022-10-16T12:53:36;4.57;;;1.10;;
3939;SDS011;1984;48.312;9.244;2022-10-16T13:01:17;6.27;;;1.50;;
3939;SDS011;1984;48.312;9.244;2022-10-16T13:09:15;1.60;;;1.40;;
3939;SDS011;1984;48.312;9.244;2022-10-16T13:25:03;1.60;;;1.50;;
3939;SDS011;1984;48.312;9.244;2022-10-16T13:27:54;4.33;;;1.60;;
3939;SDS011;1984;48.312;9.244;2022-10-16T13:30:43;3.93;;;1.30;;
3939;SDS011;1984;48.312;9.244;2022-10-16T13:35:59;1.63;;;1.30;;
3939;SDS011;1984;48.312;9.244;2022-10-16T13:38:26;1.10;;;1.10;;
3939;SDS011;1984;48.312;9.244;2022-10-16T13:41:11;2.37;;;1.83;;
3939;SDS011;1984;48.312;9.244;2022-10-16T13:43:50;2.70;;;1.73;;
3939;SDS011;1984;48.312;9.244;2022-10-16T13:46:19;2.30;;;1.60;;
3939;SDS011;1984;48.312;9.244;2022-10-16T13:53:57;1.37;;;1.30;;
3939;SDS011;1984;48.312;9.244;2022-10-16T13:56:27;4.77;;;2.00;;
3939;SDS011;1984;48.312;9.244;2022-10-16T13:58:58;1.60;;;1.47;;
3939;SDS011;1984;48.312;9.244;2022-10-16T14:01:32;3.33;;;1.43;;
3939;SDS011;1984;48.312;9.244;2022-10-16T14:04:04;1.50;;;1.20;;
3939;SDS011;1984;48.312;9.244;2022-10-16T14:06:32;2.40;;;1.10;;
3939;SDS011;1984;48.312;9.244;2022-10-16T14:09:02;2.30;;;1.00;;
3939;SDS011;1984;48.312;9.244;2022-10-16T14:11:31;3.47;;;1.40;;
3939;SDS011;1984;48.312;9.244;2022-10-16T14:13:58;10.50;;;1.50;;
3939;SDS011;1984;48.312;9.244;2022-10-16T14:16:25;7.30;;;1.50;;
3939;SDS011;1984;48.312;9.244;2022-10-16T14:19:03;2.20;;;1.23;;
3939;SDS011;1984;48.312;9.244;2022-10-16T14:21:31;4.00;;;1.87;;
3939;SDS011;1984;48.312;9.244;2022-10-16T14:23:58;1.67;;;1.50;;
3939;SDS011;1984;48.312;9.244;2022-10-16T14:26:41;1.30;;;1.20;;
3939;SDS011;1984;48.312;9.244;2022-10-16T14:29:15;5.47;;;1.30;;
3939;SDS011;1984;48.312;9.244;2022-10-16T14:31:54;1.30;;;1.20;;
3939;SDS011;1984;48.312;9.244;2022-10-16T14:34:37;3.30;;;1.43;;
3939;SDS011;1984;48.312;9.244;2022-10-16T14:37:06;1.00;;;1.00;;
3939;SDS011;1984;48.312;9.244;2022-10-16T14:39:39;3.83;;;1.20;;
3939;SDS011;1984;48.312;9.244;2022-10-16T14:42:11;2.33;;;1.20;;
3939;SDS011;1984;48.312;9.244;2022-10-16T14:44:42;6.13;;;1.77;;
3939;SDS011;1984;48.312;9.244;2022-10-16T14:47:09;1.43;;;1.33;;
3939;SDS011;1984;48.312;9.244;2022-10-16T14:49:42;1.10;;;1.00;;
3939;SDS011;1984;48.312;9.244;2022-10-16T14:52:11;1.17;;;1.07;;
3939;SDS011;1984;48.312;9.244;2022-10-16T14:54:37;5.03;;;1.20;;
3939;SDS011;1984;48.312;9.244;2022-10-16T14:57:03;1.00;;;1.00;;
3939;SDS011;1984;48.312;9.244;2022-10-16T14:59:36;7.00;;;1.30;;
3939;SDS011;1984;48.312;9.244;2022-10-16T15:04:52;1.10;;;1.00;;
3939;SDS011;1984;48.312;9.244;2022-10-16T15:07:17;1.13;;;1.13;;
3939;SDS011;1984;48.312;9.244;2022-10-16T15:09:43;11.13;;;1.00;;
3939;SDS011;1984;48.312;9.244;2022-10-16T15:12:09;1.10;;;0.90;;
3939;SDS011;1984;48.312;9.244;2022-10-16T15:14:34;1.00;;;0.90;;
3939;SDS011;1984;48.312;9.244;2022-10-16T15:17:00;1.10;;;0.93;;
3939;SDS011;1984;48.312;9.244;2022-10-16T15:19:25;3.00;;;1.20;;
3939;SDS011;1984;48.312;9.244;2022-10-16T15:21:51;1.90;;;1.03;;
3939;SDS011;1984;48.312;9.244;2022-10-16T15:24:17;12.93;;;1.23;;
3939;SDS011;1984;48.312;9.244;2022-10-16T15:26:43;1.77;;;1.23;;
3939;SDS011;1984;48.312;9.244;2022-10-16T15:29:10;1.33;;;1.23;;
3939;SDS011;1984;48.312;9.244;2022-10-16T15:31:37;1.50;;;1.30;;
3939;SDS011;1984;48.312;9.244;2022-10-16T15:34:03;1.90;;;1.20;;
3939;SDS011;1984;48.312;9.244;2022-10-16T15:36:34;1.93;;;1.50;;
3939;SDS011;1984;48.312;9.244;2022-10-16T15:39:05;1.90;;;1.07;;
3939;SDS011;1984;48.312;9.244;2022-10-16T15:41:36;1.20;;;1.10;;
3939;SDS011;1984;48.312;9.244;2022-10-16T15:44:02;1.27;;;1.03;;
3939;SDS011;1984;48.312;9.244;2022-10-16T15:46:28;0.90;;;0.90;;
3939;SDS011;1984;48.312;9.244;2022-10-16T15:48:56;1.20;;;1.10;;
3939;SDS011;1984;48.312;9.244;2022-10-16T15:51:23;1.03;;;1.00;;
3939;SDS011;1984;48.312;9.244;2022-10-16T15:53:49;2.93;;;1.10;;
3939;SDS011;1984;48.312;9.244;2022-10-16T15:56:16;3.23;;;1.23;;
3939;SDS011;1984;48.312;9.244;2022-10-16T15:58:42;7.93;;;1.50;;
3939;SDS011;1984;48.312;9.244;2022-10-16T16:01:08;3.00;;;1.27;;
3939;SDS011;1984;48.312;9.244;2022-10-16T16:03:37;6.53;;;1.50;;
3939;SDS011;1984;48.312;9.244;2022-10-16T16:06:07;2.00;;;1.37;;
3939;SDS011;1984;48.312;9.244;2022-10-16T16:08:34;1.70;;;1.57;;
3939;SDS011;1984;48.312;9.244;2022-10-16T16:11:00;6.13;;;4.00;;
3939;SDS011;1984;48.312;9.244;2022-10-16T16:13:28;5.87;;;3.30;;
3939;SDS011;1984;48.312;9.244;2022-10-16T16:15:54;6.53;;;3.33;;
3939;SDS011;1984;48.312;9.244;2022-10-16T16:18:19;6.90;;;4.37;;
3939;SDS011;1984;48.312;9.244;2022-10-16T16:20:45;10.27;;;4.67;;
3939;SDS011;1984;48.312;9.244;2022-10-16T16:23:11;24.97;;;15.27;;
3939;SDS011;1984;48.312;9.244;2022-10-16T16:25:36;39.97;;;23.67;;
3939;SDS011;1984;48.312;9.244;2022-10-16T16:28:02;13.57;;;10.33;;
3939;SDS011;1984;48.312;9.244;2022-10-16T16:30:27;8.37;;;4.43;;
3939;SDS011;1984;48.312;9.244;2022-10-16T16:32:53;18.83;;;5.70;;
3939;SDS011;1984;48.312;9.244;2022-10-16T16:35:18;7.50;;;4.80;;
3939;SDS011;1984;48.312;9.244;2022-10-16T16:37:44;9.20;;;5.70;;
3939;SDS011;1984;48.312;9.244;2022-10-16T16:40:11;8.47;;;4.57;;
3939;SDS011;1984;48.312;9.244;2022-10-16T16:42:36;8.47;;;5.20;;
3939;SDS011;1984;48.312;9.244;2022-10-16T16:45:02;7.93;;;3.80;;
3939;SDS011;1984;48.312;9.244;2022-10-16T16:47:28;18.07;;;2.90;;
3939;SDS011;1984;48.312;9.244;2022-10-16T16:49:53;4.90;;;2.10;;
3939;SDS011;1984;48.312;9.244;2022-10-16T16:52:19;5.27;;;2.70;;
3939;SDS011;1984;48.312;9.244;2022-10-16T16:54:44;4.93;;;2.63;;
3939;SDS011;1984;48.312;9.244;2022-10-16T16:57:17;15.97;;;3.60;;
3939;SDS011;1984;48.312;9.244;2022-10-16T16:59:44;11.50;;;4.17;;
3939;SDS011;1984;48.312;9.244;2022-10-16T17:02:09;7.27;;;4.30;;
3939;SDS011;1984;48.312;9.244;2022-10-16T17:04:35;6.90;;;4.60;;
3939;SDS011;1984;48.312;9.244;2022-10-16T17:07:00;18.07;;;5.53;;
3939;SDS011;1984;48.312;9.244;2022-10-16T17:09:26;6.23;;;4.50;;
3939;SDS011;1984;48.312;9.244;2022-10-16T17:11:51;11.33;;;5.30;;
3939;SDS011;1984;48.312;9.244;2022-10-16T17:14:17;7.50;;;4.63;;
3939;SDS011;1984;48.312;9.244;2022-10-16T17:16:43;15.73;;;5.03;;
3939;SDS011;1984;48.312;9.244;2022-10-16T17:19:13;12.33;;;6.97;;
3939;SDS011;1984;48.312;9.244;2022-10-16T17:21:40;13.53;;;7.40;;
3939;SDS011;1984;48.312;9.244;2022-10-16T17:24:06;11.30;;;7.33;;
3939;SDS011;1984;48.312;9.244;2022-10-16T17:26:33;16.90;;;8.20;;